Saturday, June 25, 2016
14:06 UTC
  |  Log In   |  Register Free
Airport Search:

Pilot Country Airport
(X05)

Pilot Country Airport Diagram
No Airport Diagram Available

FAA data valid effective May 26 2016 - Jul 21 2016 (unless otherwise noted).

 
 
 
 
 
 
 
 
 
 
 
 
 
 
Summary: Pilot Country (X05)

Weather Summary


METAR for X05 is not available. Closest METAR is for KZPH 19.0 nm NW
KZPH  (19.0 nm NW)   (most recent observation was updated at 25:14 UTC)
251415Z AUTO 26003KT 10SM BKN120 28/22 A3013 RMK AO2 T02820223

KVDF  (20.6 nm NW)   (most recent observation was updated at 25:13 UTC)
251355Z AUTO 22003KT BKN120 31/24 A3012 RMK AO2 PWINO

TAF for X05 is not available.
KTPA  (21.4 nm NE)   (most recent observation was updatred at 25:11 UTC)
251120Z 2512/2612 VRB03KT P6SM FEW110 SCT250 FM251400 22005KT P6SM FEW025 SCT100 FM251700 25008KT P6SM VCTS SCT035CB SCT150 FM252100 30009KT P6SM VCTS SCT040CB BKN200 FM260100 VRB03KT P6SM FEW100 SCT250


KPIE  (27.2 nm NE)   (most recent observation was updatred at 25:11 UTC)
251120Z 2512/2612 VRB04KT P6SM FEW110 SCT250 FM251400 04006KT P6SM FEW025 SCT100 FM251700 30008KT P6SM VCTS SCT030CB SCT150 FM252100 33009KT P6SM VCTS SCT035CB BKN200 FM260100 VRB03KT P6SM FEW100 SCT250


KMCF  (28.9 nm NE)   (most recent observation was updatred at 25:08 UTC)
250800Z 2508/2614 12009KT 9999 SCT100 QNH3002INS BECMG 2515/2516 24012KT 9999 SCT045 SCT100 QNH3006INS BECMG 2523/2524 15009KT 9999 SKC QNH3002INS TX33/2521Z TN25/2509Z
GlobalAir.com is loading additional information.
Current weather conditions are not available for X05.

The nearest NOAA weather station is at BKV (8.9 nm NE from X05)
 Current Weather at BKV
80.0 F° (26.7 C°)
Mostly Cloudy
North winds at 0.0 mph
Pressure:
30.13 in
Humidity:
85%
Wind:
Calm
Dew Point:
75.0 F° (23.9 C°)
Visibility:
10.00 mi
X05 NOAA Radar

Runway Summary

ID Dimensions Surface Instrument Approaches
18/36 75 ft x 3700 ft Asphalt, Fair Condition N/A

Communications Summary


CTAF122.80
UNICOM122.80
ATISN/A
CLEARANCE DELIVERYN/A

Terminal Procedures Summary


No terminal procedures available for X05





Closest Alternate Airports with Instrument Procedures

KBKV - Hernando County - 10.2 nm NE from X05

KBKV - Hernando County - 10.2 nm NE from X05

KZPH - Zephyrhills Municipal - 21.9 nm SE from X05

KZPH - Zephyrhills Municipal - 21.9 nm SE from X05

KVDF - Vandenberg - 23.7 nm SE from X05

KVDF - Vandenberg - 23.7 nm SE from X05

KTPA - Tampa International - 24.6 nm SW from X05

KTPA - Tampa International - 24.6 nm SW from X05

KTPF - Peter O Knight - 28.8 nm SE from X05

KTPF - Peter O Knight - 28.8 nm SE from X05

Find All Airport Services Find A Hotel Find A Rental Car Find A Golf Course Find A Restaurant $100 Hamburger



FBO's on the Field
FBO Company Facility Photos Services Transportation Aviation Fuel Prices: Prices include tax
Catering Weather Repair Courtesy Rental Type 100LL JetA JetA+ MOGAS 8087
 
Pilot Country Airport, LLC

This FBO has not yet been rated
FS:Independent
Last Updated: Jun-13
Login to update fuel prices
SS:
Contact Pilot Country Airport, LLCMore FBO Information
 
Add another FBO Facility Photos Catering Weather Repair Courtesy Rental Type 100LL JetA JetA+ MOGAS 8087
Services Transportation Aviation Fuel Prices: Prices include tax


model-print
model-print
model-print
model-print